Baker, NV

3:11 AM PDT on October 23, 2014 (GMT -0700)
Hwy 488 | Change Station
CLOSE
Current Station
Personal Weather Station
Location: Baker, NV
Elevation: 6437 ft
Nearby Weather Stations

Elev 6437 ft 39.01 °N, 114.20 °W | Updated 5 seconds ago

Clear
Clear
41.7 °F
Feels Like 39 °F
N
4.2
Wind Variable Wind from SW

Today
High -- | Low -- °F
--% Chance of Precip.
Yesterday
High -- | Low -- °F
Precip. -- in
6:54 AM 5:46 PM
Waning Crescent, 0% visible
Pressure 29.99 in
Visibility 10.0 miles
Clouds Clear
Windchill 39 °F
Dew Point 25 °F
Humidity 51%
Rainfall 0.00 in
Snow Depth Not available.
UV 0 out of 12
Pollen 2.30 out of 12
Air Quality Not available.
Flu Activity No Activity
METAR KELY 230953Z AUTO 19013KT 10SM CLR 07/M07 A3020 RMK AO2 SLP156 T00671067

More Conditions Fewer Conditions

Pressure 29.99 in
Visibility 10.0 miles
Clouds Clear
Windchill 39 °F
Dew Point 25 °F
Humidity 51%
Rainfall 0.00 in
Snow Depth Not available.
UV 0 out of 12
Pollen 2.30 out of 12
Air Quality Not available.
Flu Activity No Activity
METAR KELY 230953Z AUTO 19013KT 10SM CLR 07/M07 A3020 RMK AO2 SLP156 T00671067

More Conditions Fewer Conditions

10-Day Weather Forecast

Almanac

Astronomy

Oct. 23, 2014 Rise Set
Actual Time 6:54 AM PDT 5:46 PM PDT
Civil Twilight 6:27 AM PDT 6:14 PM PDT
Nautical Twilight 5:56 AM PDT 6:45 PM PDT
Astronomical Twilight 5:25 AM PDT 7:16 PM PDT
Moon 6:38 AM PDT 5:51 PM PDT
Length of Visible Light 11h 46m
Length of Day
10h 52m
Tomorrow will be 2m 21s shorter.
Waning Crescent, 0% of the Moon is Illuminated
Today
Waning Crescent
Oct 23
New
Oct 30
First Quarter
Nov 6
Full
Nov 14
Last Quarter

Today's Extremes

State Highs State Lows

Community

WunderPhotos

Upload Photos

1,764,202 photos uploaded!

Nearby

Snow Depth

Station Depth Elevation
Ward Mountain 0 in 9200 ft
Diamond Peak 1 in 8000 ft
Corral Canyon 1 in 8500 ft
Green Mountain 0 in 8000 ft
Lamoille #3 1 in 7700 ft

Earthquake Activity

City Distance Mag. Time & Date
No recent earthquake activity has been reported nearby.
Minimum magnitude displayed is 2.5.

Coastal Water Temperatures

Place Temperature
No Stations Reporting

Nearby Weather Stations